Aérodrome :
LOGIN :

S'inscrire | Disclaimer

   EN    FR    IT 

 










Légende :    VFR   VFR Marginal   IFR   IFR Intensif   IFR Très Intensif
Visi : 
Plafond : 
>= 8 km
>= 3000ft
5 à 8 km
1000 à 3000 ft
1500m à 5 km
500 à 1000 ft
800 à 1500m
200 à 500 ft
< 800m
< 200 ft
Symboles :   Orages  Brouillard  Fortes neiges  Fortes précipitations  Vent > 20 kt
SIGMETs :   Divers  Orages  Givrage  Turbulence  Onde Orograph.  Cendres Volcan.







- Altitude de l'aérodrome : 1411 ft
- Code IATA : SZG


LOWS - Salzburg

DERNIER METAR :
  • 191050Z 29005KT 250V330 9999 FEW012 BKN016 M02/M05 Q1018 TEMPO BKN014

METARs EXPIRÉS :
  • 191020Z 28004KT 250V320 9999 FEW012 BKN017 M02/M04 Q1018 TEMPO BKN014
  • 190950Z 27004KT 240V310 9999 FEW010 BKN015 M02/M04 Q1018 TEMPO BKN014
  • 190920Z 31004KT 280V340 9999 FEW010 BKN014 M02/M04 Q1019 TEMPO BKN015
  • 190850Z VRB02KT 9999 FEW008 SCT016 M01/M04 Q1019 NOSIG
  • 190820Z VRB03KT 9999 FEW008 M02/M05 Q1019 NOSIG

TAF AMD TAF LOWS
Valide du 19 à 09h jusqu'au 20 à 06h UTC


190911Z 1909/2006 33004KT 9999 FEW010 SCT015 TX03/1914Z TNM04/2006Z
TEMPO 1909/1912 BKN012
BECMG 1916/1918 FEW040 BKN200
TEMPO 1920/2006 4000 BR SCT040
BECMG 2004/2006 FEW015 BKN030
Pas de NOTAMs connus pour ce terrain.



MET'MAP, la Météo Aéronautique d'un coup d'oeil ! - Copyright ORBIFLY Décembre 2007 - Disclaimer

ORBIFLY MET'MAP TEAM :

Programmation & Développement : Alexandra Zaïnal
Conception & Développement : Baudouin d'Aumeries
Co-Programmation & Développement : Marc-Olivier Méhu
Soutien technique & logistique : Manuel Goepfert

Contact : metmap@orbifly.com




SOURCES & CREDITS :

   NOAA